Deer Lodge (38S)
Deer Lodge, MT
Field Elevation: 4692
Lat: 49°23.27N  Long: 112°45.89W
CTAF/Unicom Freq: 120.0250
   
     For Weather-by-Phone, call 406-846-1177
Weather Advisories
2017-06-27   01:40 Z
Altimeter 29.84" Hg
Wind 310° @ 12 KT
Gusts 17 KT
Visibility 10 SM
Temperature 27° C (81° F)
Dewpoint 8° C (46° F)
Relative Humidity 30%
Density Altitude 7,200 feet
Condensation Altitude 14,400 feet
Heat Index: 26° C (79° F)
Wind and Runways
Indicated Runway = 30
Headwind = 12 kt
Crosswind = 2 kt
History
 
 
 
More Info
NOAA Forecast
 
 
About Us
Belfort Instrument
 
 
FAA Disclaimer: The data displayed is for advisory purposes only and is not to be used for flight planning or operations. For official data, please call 406-846-1177 to hear the current automated AWOS voice message.
  METAR 38S 270140Z AUTO 31012G17KT 10 SM 27/08 A2984